Atlantico Due — ORUW — position and weather

sailwx.info

Track history (hours):
 
Tides and Currents Weather Stations Pressure Air Temp Water Temp Dewpoint Dewpoint Depression Visibility Wind Speed Wind Dir Waves Ship Positions

Atlantico Due

Last reported at 2014-Dec-14 20:08 UTC. Time now 2014-Dec-22 08:29 UTC.
Position N 08°49' W 013°60'.

; draft 6 m.

Type: Dredging. MMSI: 205062000.

Date/timePositionNaut miles runAvg speedWind from/ knotsBaromVisibWave heightAir tempDewpointWater temp
2014-Dec-14 20:08N 08°49' W 013°60'610.1
2014-Dec-14 19:33N 08°55' W 013°60'1010.2
2014-Dec-14 18:33N 09°04' W 013°57'1010.2
2014-Dec-14 17:33N 09°13' W 013°52'1010.3
2014-Dec-14 16:33N 09°22' W 013°46'8 7.7
2014-Dec-14 15:33N 09°29' W 013°44'2 1.9
2014-Dec-14 14:33N 09°31' W 013°43'0 0.0
2014-Dec-14 13:33N 09°31' W 013°43'0 0.0
2014-Dec-14 12:34N 09°31' W 013°43'0 0.0
2014-Dec-14 11:34N 09°31' W 013°43'0 0.0
2014-Dec-14 10:33N 09°31' W 013°43'0 0.0
2014-Dec-14 09:33N 09°31' W 013°43'4 3.6
2014-Dec-14 08:33N 09°28' W 013°42'4 3.9
2014-Dec-14 07:33N 09°31' W 013°43'3 3.5
2014-Dec-14 06:33N 09°28' W 013°43'3 3.1
2014-Dec-14 05:33N 09°31' W 013°43'1 1.2
2014-Dec-14 04:33N 09°30' W 013°44'1 1.1
2014-Dec-14 03:33N 09°29' W 013°43'3 2.7
2014-Dec-14 02:33N 09°31' W 013°43'4 3.9
2014-Dec-14 01:34N 09°28' W 013°42'0 0.3
2014-Dec-14 00:04N 09°28' W 013°43'2 3.6
2014-Dec-13 23:33N 09°29' W 013°44'0 0.2
2014-Dec-13 22:33N 09°29' W 013°44'2 2.1
2014-Dec-13 21:33N 09°31' W 013°43'3 2.9
2014-Dec-13 20:33N 09°28' W 013°43'3 3.1
2014-Dec-13 19:33N 09°31' W 013°43'4 4.0
2014-Dec-13 18:33N 09°28' W 013°42'4 3.6
2014-Dec-13 17:33N 09°31' W 013°43'4 3.6
2014-Dec-13 16:33N 09°28' W 013°43'3 3.5
2014-Dec-13 15:33N 09°31' W 013°43'1 1.2
2014-Dec-13 14:33N 09°30' W 013°43'1 1.4
2014-Dec-13 13:33N 09°29' W 013°43'2 2.3
2014-Dec-13 12:33N 09°31' W 013°44'0 0.0
2014-Dec-13 11:33N 09°31' W 013°43'3 2.6
2014-Dec-13 10:33N 09°28' W 013°43'3 0.1
2014-Dec-11 09:33N 09°31' W 013°43'3 3.2
2014-Dec-11 08:33N 09°28' W 013°42'3 3.2
2014-Dec-11 07:34N 09°31' W 013°43'1 1.1
2014-Dec-11 06:33N 09°30' W 013°44'2 2.2
2014-Dec-11 05:33N 09°28' W 013°43'3 2.9
2014-Dec-11 04:33N 09°31' W 013°44'3 2.9
2014-Dec-11 03:33N 09°28' W 013°43'2 2.2
2014-Dec-11 02:33N 09°30' W 013°44'1 0.8
2014-Dec-11 01:33N 09°31' W 013°44'3 2.9
2014-Dec-11 00:33N 09°28' W 013°43'2 2.0
2014-Dec-10 23:33N 09°30' W 013°44'1 1.0
2014-Dec-10 22:34N 09°31' W 013°43'3 2.8
2014-Dec-10 21:33N 09°28' W 013°43'2 1.9
2014-Dec-10 20:33N 09°30' W 013°44'1 1.1
2014-Dec-10 19:33N 09°31' W 013°43'3 3.0
2014-Dec-10 18:33N 09°28' W 013°43'3 3.2
2014-Dec-10 17:33N 09°31' W 013°43'3 2.7
2014-Dec-10 16:33N 09°28' W 013°43'3 2.9
2014-Dec-10 15:33N 09°31' W 013°43'4 3.7
2014-Dec-10 14:33N 09°27' W 013°42'3 3.4
2014-Dec-10 13:34N 09°31' W 013°44'0 0.1
2014-Dec-10 12:33N 09°31' W 013°43'3 2.7
2014-Dec-10 11:33N 09°28' W 013°42'3 2.9
2014-Dec-10 10:34N 09°31' W 013°43'3 2.9
2014-Dec-10 09:34N 09°28' W 013°42'3 3.2
2014-Dec-10 08:33N 09°31' W 013°43'4 3.5
2014-Dec-10 07:33N 09°28' W 013°43'3 2.9
2014-Dec-10 06:33N 09°31' W 013°44'1 1.1
2014-Dec-10 05:33N 09°29' W 013°44'1 1.4
2014-Dec-10 04:33N 09°28' W 013°43'2 2.4
2014-Dec-10 03:34N 09°30' W 013°44'2 1.9
2014-Dec-10 02:33N 09°29' W 013°43'1 1.1
2014-Dec-10 01:33N 09°30' W 013°44'2 1.1
2014-Dec-09 23:33N 09°28' W 013°42'3 2.5
2014-Dec-09 22:33N 09°30' W 013°44'0 0.2
2014-Dec-09 21:34N 09°30' W 013°44'3 2.9
2014-Dec-09 20:33N 09°28' W 013°42'3 3.1
2014-Dec-09 19:33N 09°31' W 013°43'2 2.1
2014-Dec-09 18:33N 09°28' W 013°43'1 0.6
2014-Dec-09 17:33N 09°29' W 013°43'0 0.3
2014-Dec-09 16:33N 09°29' W 013°44'1 1.5
2014-Dec-09 15:34N 09°28' W 013°43'1 1.1
2014-Dec-09 14:34N 09°28' W 013°44'0 0.2
2014-Dec-09 13:33N 09°28' W 013°43'1 1.2
2014-Dec-09 12:33N 09°28' W 013°42'1 1.1
2014-Dec-09 11:33N 09°28' W 013°43'1 0.7
2014-Dec-09 10:33N 09°29' W 013°44'1 0.7
2014-Dec-09 09:33N 09°28' W 013°44'1 0.5
2014-Dec-09 08:33N 09°28' W 013°43'1 0.6
2014-Dec-09 07:34N 09°28' W 013°42'3 2.9
2014-Dec-09 06:34N 09°31' W 013°43'3 2.9
2014-Dec-09 05:33N 09°28' W 013°43'2 2.4
2014-Dec-09 04:33N 09°30' W 013°44'0 0.4
2014-Dec-09 03:34N 09°30' W 013°44'3 3.0
2014-Dec-09 02:33N 09°28' W 013°42'3 2.9
2014-Dec-09 01:33N 09°30' W 013°44'0 0.1
2014-Dec-09 00:33N 09°30' W 013°44'3 2.7
2014-Dec-08 23:33N 09°28' W 013°42'3 2.9
2014-Dec-08 22:33N 09°30' W 013°44'1 1.4
2014-Dec-08 21:33N 09°29' W 013°44'1 1.2
2014-Dec-08 20:33N 09°28' W 013°43'2 2.4
2014-Dec-08 19:34N 09°30' W 013°43'1 1.3
2014-Dec-08 18:33N 09°29' W 013°43'0 0.5
2014-Dec-08 17:34N 09°29' W 013°43'0 0.2
2014-Dec-08 16:34N 09°29' W 013°44'2 1.5
2014-Dec-08 15:34N 09°28' W 013°42'1 1.0
2014-Dec-08 14:33N 09°28' W 013°43'1 0.6
2014-Dec-08 13:34N 09°29' W 013°44'0 0.4
2014-Dec-08 12:34N 09°29' W 013°43'2 1.7
2014-Dec-08 11:33N 09°27' W 013°43'1 1.2
2014-Dec-08 10:34N 09°28' W 013°44'1 1.2
2014-Dec-08 09:33N 09°27' W 013°43'4 3.6
2014-Dec-08 08:34N 09°31' W 013°43'0 0.1
2014-Dec-08 07:34N 09°31' W 013°43'1 0.6
2014-Dec-08 06:34N 09°30' W 013°44'3 2.5
2014-Dec-08 05:34N 09°28' W 013°43'3 3.2
2014-Dec-08 04:33N 09°31' W 013°43'4 3.9
2014-Dec-08 03:33N 09°27' W 013°42'3 3.1
2014-Dec-08 02:33N 09°30' W 013°44'1 1.0
2014-Dec-08 01:33N 09°31' W 013°43'2 1.5
2014-Dec-08 00:33N 09°30' W 013°44'0 0.0
2014-Dec-07 23:33N 09°30' W 013°44'2 1.5
2014-Dec-07 22:33N 09°31' W 013°43'3 3.0
2014-Dec-07 21:34N 09°28' W 013°43'3 3.2
2014-Dec-07 20:33N 09°31' W 013°43'4 3.7
2014-Dec-07 19:33N 09°28' W 013°43'4 3.7
2014-Dec-07 18:34N 09°31' W 013°43'2 1.8
2014-Dec-07 17:34N 09°30' W 013°44'1 1.4
2014-Dec-07 16:33N 09°31' W 013°43'3 3.1
2014-Dec-07 15:33N 09°28' W 013°43'3 3.1
2014-Dec-07 14:34N 09°31' W 013°43'3 3.4
2014-Dec-07 13:34N 09°28' W 013°43'3 3.5
2014-Dec-07 12:34N 09°31' W 013°43'3 2.6
2014-Dec-07 11:34N 09°28' W 013°43'2 2.2
2014-Dec-07 10:34N 09°31' W 013°43'1 0.0
2014-Dec-06 18:22N 09°31' W 013°43'2 3.0
2014-Dec-06 17:34N 09°29' W 013°43'2 2.5
2014-Dec-06 16:33N 09°31' W 013°43'4 3.7
2014-Dec-06 15:33N 09°28' W 013°43'4 3.6
2014-Dec-06 14:33N 09°31' W 013°43'3 3.5
2014-Dec-06 13:34N 09°28' W 013°43'4 3.7
2014-Dec-06 12:33N 09°31' W 013°43'4 3.9
2014-Dec-06 11:33N 09°27' W 013°43'4 3.9
2014-Dec-06 10:34N 09°31' W 013°43'2 2.3
2014-Dec-06 09:34N 09°29' W 013°43'1 1.0
2014-Dec-06 08:34N 09°30' W 013°44'2 1.7
2014-Dec-06 07:34N 09°31' W 013°43'2 2.0
2014-Dec-06 06:34N 09°30' W 013°43'2 1.9
2014-Dec-06 05:33N 09°31' W 013°43'3 3.1
2014-Dec-06 04:33N 09°28' W 013°43'3 3.1
2014-Dec-06 03:33N 09°31' W 013°43'4 3.8
2014-Dec-06 02:34N 09°28' W 013°42'4 3.8
2014-Dec-06 01:34N 09°31' W 013°43'2 2.4
2014-Dec-06 00:34N 09°29' W 013°44'1 1.4
2014-Dec-05 23:33N 09°30' W 013°44'0 0.3
2014-Dec-05 22:33N 09°31' W 013°43'3 2.9
2014-Dec-05 21:34N 09°28' W 013°42'3 3.2
2014-Dec-05 20:33N 09°31' W 013°43'1 1.2
2014-Dec-05 19:34N 09°30' W 013°44'1 1.2
2014-Dec-05 18:34N 09°29' W 013°43'2 2.3
2014-Dec-05 17:34N 09°31' W 013°43'0 0.4
2014-Dec-05 16:33N 09°31' W 013°43'0 0.0
2014-Dec-05 15:34N 09°31' W 013°43'0 0.0
2014-Dec-05 14:33N 09°31' W 013°43'0 0.0
2014-Dec-05 13:34N 09°31' W 013°43'0 0.0
2014-Dec-05 12:33N 09°31' W 013°43'0 0.0
2014-Dec-05 11:34N 09°31' W 013°43'0 0.0
2014-Dec-05 10:34N 09°31' W 013°43'0 0.0
2014-Dec-05 09:34N 09°31' W 013°43'0 0.0
2014-Dec-05 08:33N 09°31' W 013°43'2 2.2
2014-Dec-05 07:34N 09°29' W 013°43'1 1.4
2014-Dec-05 06:33N 09°30' W 013°44'0 0.4
2014-Dec-05 05:34N 09°30' W 013°44'0 0.3
2014-Dec-05 04:33N 09°29' W 013°44'1 1.1
2014-Dec-05 03:34N 09°28' W 013°43'1 0.9
2014-Dec-05 02:34N 09°28' W 013°42'1 1.3
2014-Dec-05 01:34N 09°29' W 013°43'1 1.3
2014-Dec-05 00:34N 09°30' W 013°44'0 0.0
2014-Dec-04 23:34N 09°30' W 013°44'2 2.1
2014-Dec-04 22:33N 09°28' W 013°43'0 0.5
2014-Dec-04 21:34N 09°28' W 013°42'1 1.0
2014-Dec-04 20:33N 09°28' W 013°43'  
Track history (hours):
 
Tides and Currents Weather Stations Pressure Air Temp Water Temp Dewpoint Dewpoint Depression Visibility Wind Speed Wind Dir Waves Ship Positions

Atlantico Due

Last reported at 2014-Dec-14 20:08 UTC. Time now 2014-Dec-22 08:29 UTC.
Position N 08°49' W 013°60'.

; draft 6 m.

Type: Dredging. MMSI: 205062000.

Date/timePositionNaut miles runAvg speedWind from/ knotsBaromVisibWave heightAir tempDewpointWater temp
2014-Dec-14 20:08N 08°49' W 013°60'610.1
2014-Dec-14 19:33N 08°55' W 013°60'1010.2
2014-Dec-14 18:33N 09°04' W 013°57'1010.2
2014-Dec-14 17:33N 09°13' W 013°52'1010.3
2014-Dec-14 16:33N 09°22' W 013°46'8 7.7
2014-Dec-14 15:33N 09°29' W 013°44'2 1.9
2014-Dec-14 14:33N 09°31' W 013°43'0 0.0
2014-Dec-14 13:33N 09°31' W 013°43'0 0.0
2014-Dec-14 12:34N 09°31' W 013°43'0 0.0
2014-Dec-14 11:34N 09°31' W 013°43'0 0.0
2014-Dec-14 10:33N 09°31' W 013°43'0 0.0
2014-Dec-14 09:33N 09°31' W 013°43'4 3.6
2014-Dec-14 08:33N 09°28' W 013°42'4 3.9
2014-Dec-14 07:33N 09°31' W 013°43'3 3.5
2014-Dec-14 06:33N 09°28' W 013°43'3 3.1
2014-Dec-14 05:33N 09°31' W 013°43'1 1.2
2014-Dec-14 04:33N 09°30' W 013°44'1 1.1
2014-Dec-14 03:33N 09°29' W 013°43'3 2.7
2014-Dec-14 02:33N 09°31' W 013°43'4 3.9
2014-Dec-14 01:34N 09°28' W 013°42'0 0.3
2014-Dec-14 00:04N 09°28' W 013°43'2 3.6
2014-Dec-13 23:33N 09°29' W 013°44'0 0.2
2014-Dec-13 22:33N 09°29' W 013°44'2 2.1
2014-Dec-13 21:33N 09°31' W 013°43'3 2.9
2014-Dec-13 20:33N 09°28' W 013°43'3 3.1
2014-Dec-13 19:33N 09°31' W 013°43'4 4.0
2014-Dec-13 18:33N 09°28' W 013°42'4 3.6
2014-Dec-13 17:33N 09°31' W 013°43'4 3.6
2014-Dec-13 16:33N 09°28' W 013°43'3 3.5
2014-Dec-13 15:33N 09°31' W 013°43'1 1.2
2014-Dec-13 14:33N 09°30' W 013°43'1 1.4
2014-Dec-13 13:33N 09°29' W 013°43'2 2.3
2014-Dec-13 12:33N 09°31' W 013°44'0 0.0
2014-Dec-13 11:33N 09°31' W 013°43'3 2.6
2014-Dec-13 10:33N 09°28' W 013°43'3 0.1
2014-Dec-11 09:33N 09°31' W 013°43'3 3.2
2014-Dec-11 08:33N 09°28' W 013°42'3 3.2
2014-Dec-11 07:34N 09°31' W 013°43'1 1.1
2014-Dec-11 06:33N 09°30' W 013°44'2 2.2
2014-Dec-11 05:33N 09°28' W 013°43'3 2.9
2014-Dec-11 04:33N 09°31' W 013°44'3 2.9
2014-Dec-11 03:33N 09°28' W 013°43'2 2.2
2014-Dec-11 02:33N 09°30' W 013°44'1 0.8
2014-Dec-11 01:33N 09°31' W 013°44'3 2.9
2014-Dec-11 00:33N 09°28' W 013°43'2 2.0
2014-Dec-10 23:33N 09°30' W 013°44'1 1.0
2014-Dec-10 22:34N 09°31' W 013°43'3 2.8
2014-Dec-10 21:33N 09°28' W 013°43'2 1.9
2014-Dec-10 20:33N 09°30' W 013°44'1 1.1
2014-Dec-10 19:33N 09°31' W 013°43'3 3.0
2014-Dec-10 18:33N 09°28' W 013°43'3 3.2
2014-Dec-10 17:33N 09°31' W 013°43'3 2.7
2014-Dec-10 16:33N 09°28' W 013°43'3 2.9
2014-Dec-10 15:33N 09°31' W 013°43'4 3.7
2014-Dec-10 14:33N 09°27' W 013°42'3 3.4
2014-Dec-10 13:34N 09°31' W 013°44'0 0.1
2014-Dec-10 12:33N 09°31' W 013°43'3 2.7
2014-Dec-10 11:33N 09°28' W 013°42'3 2.9
2014-Dec-10 10:34N 09°31' W 013°43'3 2.9
2014-Dec-10 09:34N 09°28' W 013°42'3 3.2
2014-Dec-10 08:33N 09°31' W 013°43'4 3.5
2014-Dec-10 07:33N 09°28' W 013°43'3 2.9
2014-Dec-10 06:33N 09°31' W 013°44'1 1.1
2014-Dec-10 05:33N 09°29' W 013°44'1 1.4
2014-Dec-10 04:33N 09°28' W 013°43'2 2.4
2014-Dec-10 03:34N 09°30' W 013°44'2 1.9
2014-Dec-10 02:33N 09°29' W 013°43'1 1.1
2014-Dec-10 01:33N 09°30' W 013°44'2 1.1
2014-Dec-09 23:33N 09°28' W 013°42'3 2.5
2014-Dec-09 22:33N 09°30' W 013°44'0 0.2
2014-Dec-09 21:34N 09°30' W 013°44'3 2.9
2014-Dec-09 20:33N 09°28' W 013°42'3 3.1
2014-Dec-09 19:33N 09°31' W 013°43'2 2.1
2014-Dec-09 18:33N 09°28' W 013°43'1 0.6
2014-Dec-09 17:33N 09°29' W 013°43'0 0.3
2014-Dec-09 16:33N 09°29' W 013°44'1 1.5
2014-Dec-09 15:34N 09°28' W 013°43'1 1.1
2014-Dec-09 14:34N 09°28' W 013°44'0 0.2
2014-Dec-09 13:33N 09°28' W 013°43'1 1.2
2014-Dec-09 12:33N 09°28' W 013°42'1 1.1
2014-Dec-09 11:33N 09°28' W 013°43'1 0.7
2014-Dec-09 10:33N 09°29' W 013°44'1 0.7
2014-Dec-09 09:33N 09°28' W 013°44'1 0.5
2014-Dec-09 08:33N 09°28' W 013°43'1 0.6
2014-Dec-09 07:34N 09°28' W 013°42'3 2.9
2014-Dec-09 06:34N 09°31' W 013°43'3 2.9
2014-Dec-09 05:33N 09°28' W 013°43'2 2.4
2014-Dec-09 04:33N 09°30' W 013°44'0 0.4
2014-Dec-09 03:34N 09°30' W 013°44'3 3.0
2014-Dec-09 02:33N 09°28' W 013°42'3 2.9
2014-Dec-09 01:33N 09°30' W 013°44'0 0.1
2014-Dec-09 00:33N 09°30' W 013°44'3 2.7
2014-Dec-08 23:33N 09°28' W 013°42'3 2.9
2014-Dec-08 22:33N 09°30' W 013°44'1 1.4
2014-Dec-08 21:33N 09°29' W 013°44'1 1.2
2014-Dec-08 20:33N 09°28' W 013°43'2 2.4
2014-Dec-08 19:34N 09°30' W 013°43'1 1.3
2014-Dec-08 18:33N 09°29' W 013°43'0 0.5
2014-Dec-08 17:34N 09°29' W 013°43'0 0.2
2014-Dec-08 16:34N 09°29' W 013°44'2 1.5
2014-Dec-08 15:34N 09°28' W 013°42'1 1.0
2014-Dec-08 14:33N 09°28' W 013°43'1 0.6
2014-Dec-08 13:34N 09°29' W 013°44'0 0.4
2014-Dec-08 12:34N 09°29' W 013°43'2 1.7
2014-Dec-08 11:33N 09°27' W 013°43'1 1.2
2014-Dec-08 10:34N 09°28' W 013°44'1 1.2
2014-Dec-08 09:33N 09°27' W 013°43'4 3.6
2014-Dec-08 08:34N 09°31' W 013°43'0 0.1
2014-Dec-08 07:34N 09°31' W 013°43'1 0.6
2014-Dec-08 06:34N 09°30' W 013°44'3 2.5
2014-Dec-08 05:34N 09°28' W 013°43'3 3.2
2014-Dec-08 04:33N 09°31' W 013°43'4 3.9
2014-Dec-08 03:33N 09°27' W 013°42'3 3.1
2014-Dec-08 02:33N 09°30' W 013°44'1 1.0
2014-Dec-08 01:33N 09°31' W 013°43'2 1.5
2014-Dec-08 00:33N 09°30' W 013°44'0 0.0
2014-Dec-07 23:33N 09°30' W 013°44'2 1.5
2014-Dec-07 22:33N 09°31' W 013°43'3 3.0
2014-Dec-07 21:34N 09°28' W 013°43'3 3.2
2014-Dec-07 20:33N 09°31' W 013°43'4 3.7
2014-Dec-07 19:33N 09°28' W 013°43'4 3.7
2014-Dec-07 18:34N 09°31' W 013°43'2 1.8
2014-Dec-07 17:34N 09°30' W 013°44'1 1.4
2014-Dec-07 16:33N 09°31' W 013°43'3 3.1
2014-Dec-07 15:33N 09°28' W 013°43'3 3.1
2014-Dec-07 14:34N 09°31' W 013°43'3 3.4
2014-Dec-07 13:34N 09°28' W 013°43'3 3.5
2014-Dec-07 12:34N 09°31' W 013°43'3 2.6
2014-Dec-07 11:34N 09°28' W 013°43'2 2.2
2014-Dec-07 10:34N 09°31' W 013°43'1 0.0
2014-Dec-06 18:22N 09°31' W 013°43'2 3.0
2014-Dec-06 17:34N 09°29' W 013°43'2 2.5
2014-Dec-06 16:33N 09°31' W 013°43'4 3.7
2014-Dec-06 15:33N 09°28' W 013°43'4 3.6
2014-Dec-06 14:33N 09°31' W 013°43'3 3.5
2014-Dec-06 13:34N 09°28' W 013°43'4 3.7
2014-Dec-06 12:33N 09°31' W 013°43'4 3.9
2014-Dec-06 11:33N 09°27' W 013°43'4 3.9
2014-Dec-06 10:34N 09°31' W 013°43'2 2.3
2014-Dec-06 09:34N 09°29' W 013°43'1 1.0
2014-Dec-06 08:34N 09°30' W 013°44'2 1.7
2014-Dec-06 07:34N 09°31' W 013°43'2 2.0
2014-Dec-06 06:34N 09°30' W 013°43'2 1.9
2014-Dec-06 05:33N 09°31' W 013°43'3 3.1
2014-Dec-06 04:33N 09°28' W 013°43'3 3.1
2014-Dec-06 03:33N 09°31' W 013°43'4 3.8
2014-Dec-06 02:34N 09°28' W 013°42'4 3.8
2014-Dec-06 01:34N 09°31' W 013°43'2 2.4
2014-Dec-06 00:34N 09°29' W 013°44'1 1.4
2014-Dec-05 23:33N 09°30' W 013°44'0 0.3
2014-Dec-05 22:33N 09°31' W 013°43'3 2.9
2014-Dec-05 21:34N 09°28' W 013°42'3 3.2
2014-Dec-05 20:33N 09°31' W 013°43'1 1.2
2014-Dec-05 19:34N 09°30' W 013°44'1 1.2
2014-Dec-05 18:34N 09°29' W 013°43'2 2.3
2014-Dec-05 17:34N 09°31' W 013°43'0 0.4
2014-Dec-05 16:33N 09°31' W 013°43'0 0.0
2014-Dec-05 15:34N 09°31' W 013°43'0 0.0
2014-Dec-05 14:33N 09°31' W 013°43'0 0.0
2014-Dec-05 13:34N 09°31' W 013°43'0 0.0
2014-Dec-05 12:33N 09°31' W 013°43'0 0.0
2014-Dec-05 11:34N 09°31' W 013°43'0 0.0
2014-Dec-05 10:34N 09°31' W 013°43'0 0.0
2014-Dec-05 09:34N 09°31' W 013°43'0 0.0
2014-Dec-05 08:33N 09°31' W 013°43'2 2.2
2014-Dec-05 07:34N 09°29' W 013°43'1 1.4
2014-Dec-05 06:33N 09°30' W 013°44'0 0.4
2014-Dec-05 05:34N 09°30' W 013°44'0 0.3
2014-Dec-05 04:33N 09°29' W 013°44'1 1.1
2014-Dec-05 03:34N 09°28' W 013°43'1 0.9
2014-Dec-05 02:34N 09°28' W 013°42'1 1.3
2014-Dec-05 01:34N 09°29' W 013°43'1 1.3
2014-Dec-05 00:34N 09°30' W 013°44'0 0.0
2014-Dec-04 23:34N 09°30' W 013°44'2 2.1
2014-Dec-04 22:33N 09°28' W 013°43'0 0.5
2014-Dec-04 21:34N 09°28' W 013°42'1 1.0
2014-Dec-04 20:33N 09°28' W 013°43'  

Dump ship's entire track history